Monarch, Montana
Current Conditions -  °F | °C
As of 7:56 AM on Tuesday 21 Oct 2014 (Local Time) from KGFA Reporting Station
Broken Clouds Broken Clouds  
Wind Chill: 50°   Ceiling: 20000
Heat Index: 50°   Visibility: 10mi
Dew Point: 36°   Wind: 3mph
Humidity: 59%   Direction: 10°N
Pressure: 29.66"   Gusts: NA
Location:  47.1°N, 110.83°W
Report Text: KGFA 211356Z AUTO 01003KT 10SM SCT120 BKN200 10/02 A2966 RMK AO2 SLP049 T01000024
Loading
Personal Weather Stations






























Interactive Weather Map
Tropical Storm Tracking
New forecast layout! Learn more

10-Day Weather Forecast

Advertisements
Track Severe Weather on mobile